Terminal Aerodrome Forecast
Issued by NWS

Home | Current Version | Previous Version | Graphics & Text | Print | Product List | Glossary On
Versions: 1 2 3 4 5 6 7 8 9 10 11 12 13 14
000
FTUS43 KICT 160900 AAB
TAFSLN
TAF AMD
KSLN 160952Z 1610/1706 07006KT P6SM SCT025
      TEMPO 1610/1613 5SM BR BKN035
     FM161400 15007KT P6SM BKN035=

USA.gov is the U.S. government's official web portal to all federal, state and local government web resources and services.